Time;durP1;ratioP1;P1;durP2;ratioP2;P2;SDS_P1;SDS_P2;PMS_P1;PMS_P2;Temp;Humidity;BMP_temperature;BMP_pressure;BME280_temperature;BME280_humidity;BME280_pressure;Samples;Min_cycle;Max_cycle;Signal;HPM_P1;HPM_P2
2021/06/01 00:01:52;;;;;;;6.28;5.00;;;333.60;2329.60;;;;;;4979931;28;20026;-84
2021/06/01 00:04:27;;;;;;;5.60;4.68;;;333.60;2329.60;;;;;;4980077;28;20057;-85
2021/06/01 00:06:53;;;;;;;6.10;4.90;;;333.70;2329.60;;;;;;4960606;28;20053;-85
2021/06/01 00:09:22;;;;;;;5.65;4.30;;;333.60;2329.60;;;;;;4960457;28;20467;-84
2021/06/01 00:11:49;;;;;;;5.90;4.32;;;333.60;2329.60;;;;;;4959973;28;20042;-84
2021/06/01 00:14:17;;;;;;;5.35;4.22;;;333.50;2329.60;;;;;;4960087;28;20097;-85
2021/06/01 00:16:44;;;;;;;5.40;4.30;;;333.50;2329.60;;;;;;4960198;28;20030;-84
2021/06/01 00:19:10;;;;;;;5.55;4.32;;;333.50;2329.60;;;;;;4960489;28;20123;-84
2021/06/01 00:21:38;;;;;;;5.50;4.78;;;333.50;2329.60;;;;;;4959895;28;20506;-83
2021/06/01 00:24:06;;;;;;;5.22;4.05;;;333.40;2329.60;;;;;;4960359;28;20027;-85
2021/06/01 00:26:34;;;;;;;5.32;4.50;;;333.50;2329.60;;;;;;4959879;28;20030;-84
2021/06/01 00:29:00;;;;;;;6.07;4.10;;;333.60;2329.60;;;;;;4959866;28;20027;-82
2021/06/01 00:31:26;;;;;;;6.88;4.20;;;333.60;2329.60;;;;;;4959997;28;20390;-84
2021/06/01 00:33:52;;;;;;;6.22;3.95;;;333.60;2329.60;;;;;;4960193;28;20394;-83
2021/06/01 00:36:18;;;;;;;5.55;4.75;;;333.50;2329.60;;;;;;4959870;28;20544;-85
2021/06/01 00:38:44;;;;;;;5.20;4.30;;;333.50;2329.60;;;;;;4960056;28;20073;-85
2021/06/01 00:41:10;;;;;;;5.60;4.45;;;333.40;2329.60;;;;;;4959958;28;20074;-84
2021/06/01 00:43:37;;;;;;;4.78;3.80;;;333.50;2329.60;;;;;;4959684;28;20378;-80
2021/06/01 00:46:03;;;;;;;5.50;3.72;;;333.60;2329.60;;;;;;4943693;28;20059;-85
2021/06/01 00:48:29;;;;;;;5.88;3.80;;;333.30;2329.60;;;;;;4959409;28;20030;-85
2021/06/01 00:50:55;;;;;;;5.93;3.90;;;333.50;2329.60;;;;;;4959669;28;20085;-85
2021/06/01 00:53:22;;;;;;;4.47;3.42;;;333.20;2329.60;;;;;;4959636;28;20050;-84
2021/06/01 00:55:51;;;;;;;4.57;3.53;;;333.50;2329.60;;;;;;4959415;28;20063;-85
2021/06/01 00:58:20;;;;;;;5.40;4.15;;;333.50;2329.60;;;;;;4959395;28;20474;-83
2021/06/01 01:03:33;;;;;;;5.82;3.88;;;333.50;2329.60;;;;;;4976568;28;20379;-85
2021/06/01 01:06:08;;;;;;;4.50;3.47;;;333.50;2329.60;;;;;;4955376;28;20054;-83
2021/06/01 01:08:54;;;;;;;4.78;3.67;;;333.50;2329.60;;;;;;4978787;28;20130;-83
2021/06/01 01:15:05;;;;;;;5.75;3.45;;;333.50;2329.60;;;;;;4964756;28;20151;-83
2021/06/01 01:17:47;;;;;;;4.35;3.40;;;333.60;2329.60;;;;;;4978577;28;20377;-84
2021/06/01 01:23:38;;;;;;;5.88;3.92;;;333.60;2329.60;;;;;;4995592;28;20650;-81
2021/06/01 01:26:35;;;;;;;;;;;;;;;;;;;;;
2021/06/01 01:30:07;;;;;;;5.88;4.20;;;333.70;2329.60;;;;;;4996236;28;20027;-82
2021/06/01 01:32:56;;;;;;;4.85;3.80;;;333.70;2329.60;;;;;;4953247;28;20038;-79
2021/06/01 01:35:23;;;;;;;8.15;4.10;;;333.70;2329.60;;;;;;4978162;28;20026;-84
2021/06/01 01:37:53;;;;;;;5.32;4.00;;;333.30;2329.60;;;;;;4977793;28;20033;-82
2021/06/01 01:40:37;;;;;;;6.75;5.13;;;358.40;2329.60;;;;;;4978260;28;20127;-83
2021/06/01 01:43:08;;;;;;;6.88;5.18;;;358.40;2329.60;;;;;;4978379;28;20052;-85
2021/06/01 01:45:35;;;;;;;6.57;4.70;;;358.40;2329.60;;;;;;4978314;28;20026;-83
2021/06/01 01:51:09;;;;;;;;;;;;;;;;;;;;;
2021/06/01 01:53:38;;;;;;;7.78;4.57;;;333.70;2329.60;;;;;;4995256;28;20023;-82
2021/06/01 01:56:11;;;;;;;6.43;4.93;;;358.90;2329.60;;;;;;4978056;28;20077;-83
2021/06/01 01:58:41;;;;;;;5.75;4.50;;;333.70;2329.60;;;;;;4977909;28;20069;-83
2021/06/01 02:01:07;;;;;;;6.65;4.90;;;333.60;2329.60;;;;;;4977864;28;20045;-83
2021/06/01 02:03:39;;;;;;;5.60;4.70;;;358.70;2329.60;;;;;;4977835;28;20073;-83
2021/06/01 02:06:36;;;;;;;6.53;5.07;;;333.70;2329.60;;;;;;4977094;28;20422;-85
2021/06/01 02:09:10;;;;;;;6.65;5.25;;;333.70;2329.60;;;;;;4973649;28;20425;-84
2021/06/01 02:11:42;;;;;;;9.48;5.55;;;333.70;2329.60;;;;;;4977814;28;20038;-84
2021/06/01 02:14:12;;;;;;;11.57;6.07;;;333.70;2329.60;;;;;;4977779;28;20030;-84
2021/06/01 02:17:04;;;;;;;8.75;6.40;;;333.70;2329.60;;;;;;4977667;28;20058;-82
2021/06/01 02:19:42;;;;;;;6.05;5.38;;;333.70;2329.60;;;;;;4993771;28;20046;-84
2021/06/01 02:22:38;;;;;;;7.78;6.38;;;333.70;2329.60;;;;;;4974866;28;20056;-83
2021/06/01 02:28:33;;;;;;;11.10;7.15;;;333.60;2329.60;;;;;;4994757;28;20085;-85
2021/06/01 02:31:03;;;;;;;10.57;6.72;;;333.60;2329.60;;;;;;4994934;28;20036;-86
2021/06/01 02:33:39;;;;;;;12.90;8.93;;;333.60;2329.60;;;;;;4977234;28;20026;-84
2021/06/01 02:36:07;;;;;;;12.43;7.72;;;333.60;2329.60;;;;;;4977514;28;20036;-85
2021/06/01 02:38:37;;;;;;;8.82;7.93;;;333.50;2329.60;;;;;;4977388;28;20378;-86
2021/06/01 02:41:05;;;;;;;10.77;8.93;;;333.50;2329.60;;;;;;4976894;28;20038;-85
2021/06/01 02:44:00;;;;;;;10.68;8.00;;;333.50;2329.60;;;;;;4961283;28;20026;-85
2021/06/01 02:46:27;;;;;;;13.75;8.48;;;333.50;2329.60;;;;;;4977039;28;20037;-86
2021/06/01 02:48:57;;;;;;;9.77;7.95;;;333.40;2329.60;;;;;;4977048;28;20034;-85
2021/06/01 02:51:33;;;;;;;10.32;7.60;;;333.40;2329.60;;;;;;4980605;28;20026;-84
2021/06/01 02:57:19;;;;;;;13.15;7.00;;;333.40;2329.60;;;;;;4923474;28;20035;-86
2021/06/01 02:59:46;;;;;;;11.35;7.60;;;333.30;2329.60;;;;;;4977749;28;20034;-81
2021/06/01 03:02:12;;;;;;;8.27;7.45;;;333.40;2329.60;;;;;;4980958;28;20022;-86
2021/06/01 03:09:00;;;;;;;8.85;7.05;;;333.40;2329.60;;;;;;4967819;28;20050;-84
2021/06/01 03:11:27;;;;;;;7.88;6.68;;;333.20;2329.60;;;;;;4967653;28;20030;-85
2021/06/01 03:13:53;;;;;;;8.23;6.45;;;333.20;2329.60;;;;;;4980875;28;20386;-83
2021/06/01 03:16:49;;;;;;;8.05;6.55;;;333.20;2329.60;;;;;;4980985;28;20030;-85
2021/06/01 03:19:18;;;;;;;7.75;6.50;;;333.30;2329.60;;;;;;4993876;28;20066;-85
2021/06/01 03:21:45;;;;;;;9.18;7.50;;;333.20;2329.60;;;;;;4980673;28;20081;-85
2021/06/01 03:24:14;;;;;;;7.93;7.13;;;333.30;2329.60;;;;;;4980634;28;20084;-84
2021/06/01 03:26:41;;;;;;;8.35;7.55;;;333.30;2329.60;;;;;;4981010;28;20470;-86
2021/06/01 03:29:09;;;;;;;9.82;7.38;;;333.20;2329.60;;;;;;4998200;28;20033;-85
2021/06/01 03:31:37;;;;;;;8.55;7.30;;;333.20;2329.60;;;;;;4981473;28;20031;-85
2021/06/01 03:34:12;;;;;;;9.75;7.78;;;333.20;2329.60;;;;;;4981635;28;20481;-87
2021/06/01 03:36:39;;;;;;;10.55;7.55;;;333.30;2329.60;;;;;;4981881;28;20485;-85
2021/06/01 03:39:20;;;;;;;10.32;7.75;;;333.20;2329.60;;;;;;4980247;28;20478;-85
2021/06/01 03:41:51;;;;;;;8.40;7.43;;;333.20;2329.60;;;;;;4962247;28;20035;-85
2021/06/01 03:44:18;;;;;;;10.23;8.13;;;333.30;2329.60;;;;;;4980076;28;20421;-86
2021/06/01 03:47:05;;;;;;;9.30;7.50;;;333.30;2329.60;;;;;;4964266;28;20041;-85
2021/06/01 03:49:33;;;;;;;8.98;7.38;;;333.30;2329.60;;;;;;4979508;28;20038;-86
2021/06/01 03:52:07;;;;;;;9.73;7.43;;;333.20;2329.60;;;;;;4997312;28;20027;-84
2021/06/01 03:54:59;;;;;;;10.80;9.07;;;333.20;2329.60;;;;;;4979995;28;20047;-84
2021/06/01 03:57:50;;;;;;;9.45;8.27;;;333.20;2329.60;;;;;;4978956;28;20035;-85
2021/06/01 04:00:23;;;;;;;8.50;7.53;;;333.20;2329.60;;;;;;4997136;28;20034;-84
2021/06/01 04:02:49;;;;;;;8.52;7.63;;;333.20;2329.60;;;;;;4980066;28;20371;-86
2021/06/01 04:08:08;;;;;;;9.75;6.50;;;333.20;2329.60;;;;;;4997344;28;20041;-84
2021/06/01 04:10:34;;;;;;;8.02;6.60;;;333.20;2329.60;;;;;;4979362;28;20032;-86
2021/06/01 04:13:02;;;;;;;7.80;6.80;;;333.20;2329.60;;;;;;4996632;28;20022;-86
2021/06/01 04:15:54;;;;;;;7.88;7.07;;;333.20;2329.60;;;;;;4979605;28;20073;-84
2021/06/01 04:18:20;;;;;;;7.90;6.77;;;333.20;2329.60;;;;;;4979332;28;20033;-86
2021/06/01 04:20:47;;;;;;;7.55;6.03;;;333.20;2329.60;;;;;;4979394;28;20271;-85
2021/06/01 04:23:14;;;;;;;9.00;6.85;;;333.20;2329.60;;;;;;4996805;28;20026;-84
2021/06/01 04:30:05;;;;;;;8.40;6.78;;;333.20;2329.60;;;;;;4917735;29;20040;-86
2021/06/01 04:32:34;;;;;;;8.38;7.03;;;333.20;2329.60;;;;;;4916733;28;20032;-86
2021/06/01 04:35:15;;;;;;;11.63;8.02;;;333.10;2329.60;;;;;;4995908;28;20387;-84
2021/06/01 04:37:42;;;;;;;7.78;6.75;;;333.10;2329.60;;;;;;4979097;28;20031;-85
2021/06/01 04:40:17;;;;;;;8.10;7.28;;;333.10;2329.60;;;;;;4979121;28;20510;-85
2021/06/01 04:42:53;;;;;;;7.95;6.85;;;333.20;2329.60;;;;;;4978749;28;20030;-85
2021/06/01 04:45:20;;;;;;;9.80;7.57;;;333.20;2329.60;;;;;;4978826;28;20034;-84
2021/06/01 04:48:05;;;;;;;;;;;;;;;;;;;;;
2021/06/01 04:50:31;;;;;;;9.60;7.50;;;333.20;2329.60;;;;;;4980888;28;20042;-83
2021/06/01 04:52:58;;;;;;;8.88;6.80;;;333.20;2329.60;;;;;;4978756;28;20037;-85
2021/06/01 04:55:25;;;;;;;8.93;8.00;;;333.20;2329.60;;;;;;4978703;28;20410;-85
2021/06/01 04:57:52;;;;;;;9.40;8.43;;;333.20;2329.60;;;;;;4978717;28;20108;-84
2021/06/01 05:03:26;;;;;;;9.35;7.43;;;333.20;2329.60;;;;;;4942776;29;20495;-86
2021/06/01 05:06:13;;;;;;;9.20;7.07;;;333.30;2329.60;;;;;;4990853;28;20054;-85
2021/06/01 05:08:45;;;;;;;10.13;7.55;;;333.30;2329.60;;;;;;4978615;28;20030;-84
2021/06/01 05:11:37;;;;;;;9.80;8.18;;;333.30;2329.60;;;;;;4978319;28;20057;-85
2021/06/01 05:14:10;;;;;;;11.30;8.57;;;333.30;2329.60;;;;;;4976433;28;20482;-85
2021/06/01 05:16:36;;;;;;;13.20;9.45;;;333.30;2329.60;;;;;;4978153;28;20029;-85
2021/06/01 05:21:52;;;;;;;10.10;9.10;;;333.50;2329.60;;;;;;4935565;29;20032;-85
2021/06/01 05:24:18;;;;;;;11.85;8.13;;;333.40;2329.60;;;;;;4971939;28;20045;-84
2021/06/01 05:26:45;;;;;;;11.68;8.93;;;333.30;2329.60;;;;;;4978539;28;20126;-84
2021/06/01 05:29:12;;;;;;;10.98;8.23;;;333.30;2329.60;;;;;;4962004;28;20125;-86
2021/06/01 05:32:06;;;;;;;8.73;7.82;;;333.20;2329.60;;;;;;4962136;28;20022;-84
2021/06/01 05:34:35;;;;;;;11.05;8.77;;;333.30;2329.60;;;;;;4963307;28;20030;-83
2021/06/01 05:37:01;;;;;;;10.43;8.02;;;333.20;2329.60;;;;;;4978124;28;20181;-84
2021/06/01 05:39:27;;;;;;;10.52;8.55;;;333.30;2329.60;;;;;;4977892;28;20505;-84
2021/06/01 05:41:54;;;;;;;10.93;8.82;;;333.40;2329.60;;;;;;4978158;28;20049;-81
2021/06/01 05:44:33;;;;;;;9.90;8.73;;;333.30;2329.60;;;;;;4978121;28;20033;-84
2021/06/01 05:47:27;;;;;;;13.82;9.20;;;333.30;2329.60;;;;;;4977815;28;20152;-84
2021/06/01 05:49:54;;;;;;;10.65;8.35;;;333.40;2329.60;;;;;;4995414;28;20394;-86
2021/06/01 05:52:33;;;;;;;9.02;8.13;;;333.40;2329.60;;;;;;4978102;28;20022;-83
2021/06/01 05:54:59;;;;;;;9.90;8.90;;;333.40;2329.60;;;;;;4975059;28;20034;-85
2021/06/01 05:57:25;;;;;;;12.80;8.55;;;333.30;2329.60;;;;;;4977248;28;20035;-84
2021/06/01 05:59:56;;;;;;;10.50;8.65;;;333.40;2329.60;;;;;;4994586;28;20482;-85
2021/06/01 06:02:23;;;;;;;10.57;8.80;;;333.40;2329.60;;;;;;4977406;28;20030;-85
2021/06/01 06:04:52;;;;;;;10.48;9.30;;;333.40;2329.60;;;;;;4960998;28;20036;-86
2021/06/01 06:14:23;;;;;;;9.32;8.32;;;333.60;2329.60;;;;;;4982302;28;20046;-84
2021/06/01 06:17:38;;;;;;;13.02;9.30;;;333.60;2329.60;;;;;;4957815;28;20059;-84
2021/06/01 06:20:47;;;;;;;11.88;9.55;;;333.70;2329.60;;;;;;4977771;28;20026;-85
2021/06/01 06:23:14;;;;;;;10.13;9.13;;;333.60;2329.60;;;;;;4973368;28;20061;-84
2021/06/01 06:25:40;;;;;;;12.13;9.57;;;333.70;2329.60;;;;;;4977318;28;20027;-85
2021/06/01 06:28:06;;;;;;;9.45;8.23;;;333.70;2329.60;;;;;;4977238;28;20080;-81
2021/06/01 06:30:35;;;;;;;10.70;9.18;;;333.70;2329.60;;;;;;4977145;28;20117;-84
2021/06/01 06:33:10;;;;;;;10.55;8.68;;;333.70;2329.60;;;;;;4977382;28;20034;-83
2021/06/01 06:35:36;;;;;;;11.48;9.13;;;333.70;2329.60;;;;;;4977418;28;20034;-84
2021/06/01 06:38:03;;;;;;;10.02;8.70;;;333.70;2329.60;;;;;;4977256;28;20026;-84
2021/06/01 06:40:38;;;;;;;11.48;9.00;;;333.70;2329.60;;;;;;4977328;28;20053;-84
2021/06/01 06:43:05;;;;;;;10.45;9.35;;;333.70;2329.60;;;;;;4977332;28;20109;-84
2021/06/01 06:45:36;;;;;;;11.52;9.57;;;333.40;2329.60;;;;;;4977053;28;20030;-83
2021/06/01 06:48:05;;;;;;;10.70;9.60;;;333.70;2329.60;;;;;;4977373;28;20026;-85
2021/06/01 06:50:32;;;;;;;10.35;9.30;;;333.70;2329.60;;;;;;4977191;28;20034;-85
2021/06/01 06:53:00;;;;;;;10.10;9.10;;;358.40;2329.60;;;;;;4976708;28;20026;-85
2021/06/01 06:55:26;;;;;;;13.43;10.80;;;358.40;2329.60;;;;;;4977089;28;20497;-84
2021/06/01 06:57:52;;;;;;;12.82;10.18;;;358.50;2329.60;;;;;;4977135;28;20026;-84
2021/06/01 07:00:21;;;;;;;13.95;10.75;;;358.50;2329.60;;;;;;4976854;28;20027;-82
2021/06/01 07:02:50;;;;;;;12.75;10.38;;;358.50;2329.60;;;;;;4976934;28;20052;-83
2021/06/01 07:05:19;;;;;;;11.82;10.50;;;358.50;2329.60;;;;;;4976813;28;20047;-83
2021/06/01 07:07:48;;;;;;;10.77;9.60;;;358.50;2329.60;;;;;;4976653;28;20482;-83
2021/06/01 07:10:15;;;;;;;10.38;9.15;;;358.50;2329.60;;;;;;4976827;28;20132;-83
2021/06/01 07:12:43;;;;;;;11.68;8.10;;;358.80;2329.60;;;;;;4976703;28;20022;-85
2021/06/01 07:15:24;;;;;;;13.68;11.10;;;358.70;2329.60;;;;;;4976831;28;20030;-84
2021/06/01 07:17:55;;;;;;;10.52;8.00;;;358.70;2329.60;;;;;;4978664;28;20117;-82
2021/06/01 07:20:21;;;;;;;11.05;9.82;;;358.80;2329.60;;;;;;4976839;28;20110;-87
2021/06/01 07:22:47;;;;;;;10.95;9.02;;;358.80;2329.60;;;;;;4976553;28;20022;-84
2021/06/01 07:25:13;;;;;;;11.60;9.23;;;358.70;2329.60;;;;;;4976565;28;20473;-86
2021/06/01 07:27:39;;;;;;;10.70;9.60;;;358.80;2329.60;;;;;;4976606;28;20027;-84
2021/06/01 07:30:10;;;;;;;11.90;8.95;;;358.80;2329.60;;;;;;4976873;28;20065;-82
2021/06/01 07:32:36;;;;;;;10.43;8.35;;;359.00;2329.60;;;;;;4977437;28;20493;-80
2021/06/01 07:35:02;;;;;;;11.35;8.93;;;359.10;2329.60;;;;;;4976653;28;20027;-84
2021/06/01 07:37:31;;;;;;;9.38;8.38;;;359.10;2329.60;;;;;;4993715;28;20534;-83
2021/06/01 07:39:57;;;;;;;12.05;8.65;;;359.10;2329.60;;;;;;4976512;28;20050;-85
2021/06/01 07:42:23;;;;;;;9.68;7.55;;;359.20;2329.60;;;;;;4976031;28;20053;-85
2021/06/01 07:44:49;;;;;;;9.65;7.20;;;384.00;2329.60;;;;;;4976168;28;20038;-82
2021/06/01 07:47:15;;;;;;;10.60;6.70;;;384.10;2329.60;;;;;;4979241;28;20050;-78
2021/06/01 07:49:44;;;;;;;8.68;7.15;;;359.30;2329.60;;;;;;4976547;28;20115;-81
2021/06/01 07:52:10;;;;;;;10.02;7.72;;;384.00;2329.60;;;;;;4971422;28;20026;-80
2021/06/01 07:54:36;;;;;;;8.82;6.82;;;384.10;2329.60;;;;;;4980039;28;20034;-86
2021/06/01 07:57:05;;;;;;;8.00;7.20;;;384.10;2329.60;;;;;;4979522;28;20034;-85
2021/06/01 07:59:33;;;;;;;8.77;7.40;;;384.10;2329.60;;;;;;4979664;28;20026;-85
2021/06/01 08:02:00;;;;;;;8.32;7.53;;;359.30;2329.60;;;;;;4979815;28;20405;-84
2021/06/01 08:04:26;;;;;;;10.38;7.82;;;359.20;2329.60;;;;;;4997242;28;20036;-82
2021/06/01 08:06:52;;;;;;;10.13;7.22;;;359.20;2329.60;;;;;;4980034;28;20058;-85
2021/06/01 08:09:18;;;;;;;9.60;7.85;;;359.20;2329.60;;;;;;4979787;28;20037;-83
2021/06/01 08:11:45;;;;;;;10.00;8.07;;;359.20;2329.60;;;;;;4979785;28;20083;-87
2021/06/01 08:14:11;;;;;;;9.32;7.88;;;359.20;2329.60;;;;;;4979977;28;20081;-81
2021/06/01 08:16:39;;;;;;;10.23;8.98;;;359.20;2329.60;;;;;;4979196;28;20455;-82
2021/06/01 08:19:18;;;;;;;12.48;8.30;;;359.30;2329.60;;;;;;4979468;28;20038;-84
2021/06/01 08:21:57;;;;;;;9.23;7.85;;;384.10;2329.60;;;;;;4979729;28;20089;-83
2021/06/01 08:24:25;;;;;;;10.75;7.63;;;384.30;2329.60;;;;;;4979216;28;20034;-84
2021/06/01 08:26:52;;;;;;;10.77;8.13;;;384.40;2329.60;;;;;;4979249;28;20022;-81
2021/06/01 08:29:18;;;;;;;8.40;7.60;;;384.40;2329.60;;;;;;4979180;28;20085;-84
2021/06/01 08:31:45;;;;;;;12.23;7.28;;;384.60;2329.60;;;;;;4978689;28;20023;-83
2021/06/01 08:34:13;;;;;;;8.23;7.35;;;384.70;2329.60;;;;;;4996846;28;20110;-81
2021/06/01 08:36:39;;;;;;;7.45;6.65;;;384.90;2329.60;;;;;;4978933;28;20437;-81
2021/06/01 08:39:07;;;;;;;10.23;7.47;;;384.90;2329.60;;;;;;4978583;28;20121;-80
2021/06/01 08:41:34;;;;;;;9.00;7.20;;;409.60;2355.20;;;;;;4978822;28;20041;-84
2021/06/01 08:44:03;;;;;;;10.23;7.10;;;409.80;2355.20;;;;;;4978885;28;20034;-81
2021/06/01 08:46:30;;;;;;;7.57;6.18;;;409.90;2355.20;;;;;;4965376;28;20027;-82
2021/06/01 08:48:56;;;;;;;11.20;7.22;;;409.90;2355.20;;;;;;4959735;28;20038;-79
2021/06/01 08:51:24;;;;;;;12.65;8.43;;;409.70;2355.20;;;;;;4959519;28;20030;-84
2021/06/01 08:53:56;;;;;;;8.02;6.32;;;409.70;2355.20;;;;;;4984535;28;20039;-85
2021/06/01 08:56:23;;;;;;;8.70;7.00;;;409.80;2355.20;;;;;;4959411;28;20391;-83
2021/06/01 08:58:50;;;;;;;6.82;5.50;;;409.90;2355.20;;;;;;4963372;28;20030;-83
2021/06/01 09:01:20;;;;;;;7.65;6.05;;;409.90;2355.20;;;;;;4969206;28;20031;-83
2021/06/01 09:03:51;;;;;;;8.27;6.63;;;409.80;2355.20;;;;;;4959592;28;20478;-83
2021/06/01 09:14:47;;;;;;;7.13;5.22;;;409.70;2355.20;;;;;;4976001;28;20387;-80
2021/06/01 09:22:52;;;;;;;7.72;6.60;;;384.90;2329.60;;;;;;4976409;28;20046;-83
2021/06/01 09:25:34;;;;;;;10.10;7.25;;;409.60;2355.20;;;;;;4959041;28;20031;-80
2021/06/01 09:28:02;;;;;;;8.65;7.25;;;409.60;2355.20;;;;;;4958856;28;20549;-81
2021/06/01 09:30:39;;;;;;;10.55;7.43;;;384.90;2329.60;;;;;;4976005;28;20091;-83
2021/06/01 09:33:18;;;;;;;9.25;6.90;;;384.80;2329.60;;;;;;4976829;28;20035;-82
2021/06/01 09:35:52;;;;;;;9.20;6.82;;;384.80;2329.60;;;;;;4977564;28;20023;-79
2021/06/01 09:38:21;;;;;;;8.48;6.13;;;384.60;2329.60;;;;;;4976206;28;20027;-84
2021/06/01 09:40:47;;;;;;;8.88;6.20;;;384.50;2329.60;;;;;;4958109;28;20118;-81
2021/06/01 09:43:15;;;;;;;9.88;6.75;;;384.50;2329.60;;;;;;4958361;28;20019;-83
2021/06/01 09:45:44;;;;;;;11.00;5.78;;;384.50;2329.60;;;;;;4958006;28;20116;-84
2021/06/01 09:48:12;;;;;;;7.07;5.28;;;384.50;2329.60;;;;;;4957718;28;20031;-78
2021/06/01 09:51:01;;;;;;;8.35;6.03;;;384.40;2329.60;;;;;;4958069;28;20070;-80
2021/06/01 09:53:32;;;;;;;10.95;6.82;;;384.50;2329.60;;;;;;4974243;28;20538;-79
2021/06/01 09:56:00;;;;;;;7.43;5.13;;;384.60;2329.60;;;;;;4975270;28;20027;-80
2021/06/01 09:58:34;;;;;;;7.32;4.57;;;384.70;2329.60;;;;;;4958264;28;20041;-80
2021/06/01 10:01:04;;;;;;;7.75;4.13;;;384.70;2329.60;;;;;;4958191;28;20030;-77
2021/06/01 10:03:43;;;;;;;6.38;3.78;;;384.70;2329.60;;;;;;4957876;28;20069;-77
2021/06/01 10:06:09;;;;;;;6.85;4.25;;;384.60;2329.60;;;;;;4958048;28;20376;-78
2021/06/01 10:08:46;;;;;;;6.05;4.18;;;384.60;2329.60;;;;;;4957441;28;20038;-80
2021/06/01 10:11:12;;;;;;;6.47;3.90;;;384.70;2329.60;;;;;;4958094;28;20030;-78
2021/06/01 10:13:39;;;;;;;8.65;3.47;;;384.60;2329.60;;;;;;4958012;28;20030;-80
2021/06/01 10:16:11;;;;;;;8.13;4.85;;;384.60;2329.60;;;;;;4957323;28;20118;-79
2021/06/01 10:18:42;;;;;;;6.43;4.20;;;384.50;2329.60;;;;;;4958027;28;20031;-81
2021/06/01 10:21:21;;;;;;;7.50;4.00;;;384.50;2329.60;;;;;;4957994;28;20042;-80
2021/06/01 10:23:53;;;;;;;6.97;4.18;;;384.40;2329.60;;;;;;4967659;28;20065;-79
2021/06/01 10:26:19;;;;;;;7.60;4.95;;;384.50;2329.60;;;;;;4965626;28;20030;-78
2021/06/01 10:28:49;;;;;;;5.20;3.28;;;384.40;2329.60;;;;;;4968798;28;20060;-79
2021/06/01 10:31:17;;;;;;;6.45;3.72;;;384.40;2329.60;;;;;;4976921;28;20037;-77
2021/06/01 10:34:01;;;;;;;8.30;3.60;;;384.40;2329.60;;;;;;4973589;28;20071;-79
2021/06/01 10:53:28;;;;;;;6.40;3.78;;;384.40;2329.60;;;;;;4990481;28;20030;-78
2021/06/01 10:56:02;;;;;;;5.40;3.85;;;384.40;2329.60;;;;;;4971750;28;20050;-78
2021/06/01 10:58:56;;;;;;;5.30;4.45;;;384.40;2329.60;;;;;;4965059;28;20050;-80
2021/06/01 11:04:27;;;;;;;5.22;3.55;;;384.40;2329.60;;;;;;4974836;28;20025;-79
2021/06/01 11:06:55;;;;;;;7.65;4.32;;;384.50;2329.60;;;;;;4957087;28;20061;-81
2021/06/01 11:09:34;;;;;;;6.20;3.17;;;384.40;2329.60;;;;;;4956993;28;20035;-81
2021/06/01 11:12:20;;;;;;;5.40;3.60;;;359.30;2329.60;;;;;;4956731;28;20089;-79
2021/06/01 11:14:48;;;;;;;5.10;3.30;;;384.40;2329.60;;;;;;4957788;28;20070;-80
2021/06/01 11:17:15;;;;;;;9.98;3.85;;;384.30;2329.60;;;;;;4957087;28;20092;-79
2021/06/01 11:20:26;;;;;;;5.45;3.67;;;384.30;2329.60;;;;;;4956911;28;20034;-76
2021/06/01 11:23:09;;;;;;;4.95;3.38;;;384.20;2329.60;;;;;;4961161;28;20125;-78
2021/06/01 11:33:59;;;;;;;6.70;4.82;;;359.30;2329.60;;;;;;4999005;28;20034;-78
2021/06/01 11:36:39;;;;;;;6.55;5.03;;;359.30;2329.60;;;;;;4979318;28;20081;-78
2021/06/01 11:39:27;;;;;;;14.48;6.63;;;359.20;2329.60;;;;;;4979477;28;20030;-75
2021/06/01 11:44:38;;;;;;;7.30;5.07;;;359.10;2329.60;;;;;;4996549;28;20033;-81
2021/06/01 11:47:27;;;;;;;7.97;4.20;;;359.10;2329.60;;;;;;4978892;28;20031;-79
2021/06/01 11:53:29;;;;;;;8.95;4.72;;;359.10;2329.60;;;;;;4996791;28;20502;-79
2021/06/01 11:56:02;;;;;;;6.72;4.82;;;359.20;2329.60;;;;;;4978481;28;20038;-77
2021/06/01 12:04:07;;;;;;;10.65;5.78;;;359.00;2329.60;;;;;;4994098;28;20164;-79
2021/06/01 12:18:18;;;;;;;9.65;5.93;;;359.00;2329.60;;;;;;4991298;28;20383;-76
2021/06/01 12:20:45;;;;;;;10.77;6.80;;;359.00;2329.60;;;;;;4978771;28;20057;-77
2021/06/01 12:23:32;;;;;;;9.80;6.07;;;359.00;2329.60;;;;;;4978138;28;20030;-77
2021/06/01 12:26:23;;;;;;;11.20;6.65;;;359.00;2329.60;;;;;;4974605;28;20045;-76
2021/06/01 12:32:03;;;;;;;7.75;5.07;;;359.10;2329.60;;;;;;4989884;28;20060;-78
2021/06/01 12:34:45;;;;;;;10.38;5.85;;;359.10;2329.60;;;;;;4984269;28;20089;-79
2021/06/01 12:42:44;;;;;;;9.45;5.40;;;359.10;2329.60;;;;;;5015144;28;20033;-78
2021/06/01 12:45:40;;;;;;;7.32;5.40;;;359.10;2329.60;;;;;;4997665;28;20030;-75
2021/06/01 13:19:25;;;;;;;7.25;5.75;;;384.30;2329.60;;;;;;4975553;28;20069;-82
2021/06/01 13:21:56;;;;;;;9.07;6.05;;;384.30;2329.60;;;;;;4974963;28;20035;-80
2021/06/01 13:30:34;;;;;;;10.35;7.95;;;384.40;2329.60;;;;;;4975993;28;20045;-83
2021/06/01 13:38:47;;;;;;;17.25;9.48;;;384.80;2329.60;;;;;;4976049;28;20109;-82
2021/06/01 13:47:05;;;;;;;15.48;10.43;;;410.00;2355.20;;;;;;4975631;28;20050;-83
2021/06/01 13:50:27;;;;;;;13.95;9.93;;;435.60;2355.20;;;;;;4975499;28;20030;-81
2021/06/01 13:55:10;;;;;;;11.90;9.25;;;;;;;;;;4975808;28;20055;-80
2021/06/01 14:09:32;;;;;;;5.97;4.78;;;461.20;2380.80;;;;;;4975393;28;20057;-79
2021/06/01 14:31:11;;;;;;;12.48;9.20;;;410.10;2355.20;;;;;;4952509;28;20126;-81
2021/06/01 14:56:26;;;;;;;6.43;4.35;;;384.90;2329.60;;;;;;4965976;28;20480;-83
2021/06/01 15:23:00;;;;;;;16.85;9.52;;;384.80;2329.60;;;;;;4974863;28;20506;-80
2021/06/01 15:53:37;;;;;;;14.68;11.40;;;359.20;2329.60;;;;;;4994125;28;20073;-87
2021/06/01 16:11:19;;;;;;;10.85;6.72;;;359.10;2329.60;;;;;;4993739;28;20493;-76
2021/06/01 16:21:23;;;;;;;10.02;6.40;;;358.80;2329.60;;;;;;5001269;28;20083;-80
2021/06/01 16:29:49;;;;;;;11.07;7.55;;;358.70;2329.60;;;;;;4977933;28;20545;-83
2021/06/01 17:03:57;;;;;;;;;;;;;;;;;;;;;
2021/06/01 17:06:57;;;;;;;10.40;8.45;;;358.80;2329.60;;;;;;4887928;29;20045;-87
2021/06/01 17:12:16;;;;;;;10.38;6.82;;;358.80;2329.60;;;;;;4955988;28;20037;-83
2021/06/01 17:14:43;;;;;;;7.97;6.47;;;358.80;2329.60;;;;;;4978742;28;20026;-85
2021/06/01 17:17:20;;;;;;;19.90;8.07;;;358.50;2329.60;;;;;;4978303;28;20026;-85
2021/06/01 17:37:23;;;;;;;16.50;11.35;;;358.80;2329.60;;;;;;4957315;28;20035;-88
2021/06/01 17:39:49;;;;;;;13.38;9.90;;;358.80;2329.60;;;;;;4978024;28;20040;-82
2021/06/01 17:42:20;;;;;;;15.45;10.48;;;358.80;2329.60;;;;;;4978039;28;20062;-87
2021/06/01 17:44:48;;;;;;;10.05;7.95;;;358.80;2329.60;;;;;;4978000;28;20426;-85
2021/06/01 17:47:22;;;;;;;10.50;7.43;;;358.80;2329.60;;;;;;4977861;28;20037;-82
2021/06/01 17:49:50;;;;;;;25.80;18.33;;;358.80;2329.60;;;;;;4977940;28;20027;-86
2021/06/01 17:52:30;;;;;;;56.95;34.58;;;358.80;2329.60;;;;;;4977870;28;20093;-84
2021/06/01 17:55:00;;;;;;;13.45;10.30;;;358.80;2329.60;;;;;;4995247;28;20045;-84
2021/06/01 17:57:28;;;;;;;69.38;36.42;;;358.80;2329.60;;;;;;4995482;28;20030;-82
2021/06/01 17:59:55;;;;;;;61.40;34.63;;;358.80;2329.60;;;;;;4978167;28;20119;-86
2021/06/01 18:02:25;;;;;;;64.68;31.17;;;358.80;2329.60;;;;;;4977561;28;20033;-85
2021/06/01 18:04:54;;;;;;;50.13;27.83;;;358.80;2329.60;;;;;;4977795;28;20026;-84
2021/06/01 18:07:27;;;;;;;30.23;17.92;;;358.80;2329.60;;;;;;4964329;28;20043;-83
2021/06/01 18:12:50;;;;;;;;;;;358.90;2329.60;;;;;;4976297;28;20034;-83
2021/06/01 18:35:09;;;;;;;17.13;10.15;;;358.80;2329.60;;;;;;4975178;28;20098;-84
2021/06/01 18:59:58;;;;;;;17.95;11.13;;;358.60;2329.60;;;;;;4975290;28;20098;-85
2021/06/01 19:01:23;;;;;;;12.40;8.48;;;358.50;2329.60;;;;;;4974639;28;20081;-82
2021/06/01 19:28:33;;;;;;;21.73;12.75;;;358.60;2329.60;;;;;;4975482;28;20034;-84
2021/06/01 19:42:45;;;;;;;17.83;12.50;;;358.50;2329.60;;;;;;4975968;28;20069;-86
2021/06/01 19:51:05;;;;;;;13.07;8.38;;;358.60;2329.60;;;;;;4972565;28;20542;-81
2021/06/01 19:53:32;;;;;;;15.98;9.52;;;358.50;2329.60;;;;;;4960963;28;20054;-83
2021/06/01 19:55:59;;;;;;;15.98;10.23;;;358.50;2329.60;;;;;;4961011;28;20451;-83
2021/06/01 19:58:29;;;;;;;15.80;10.57;;;358.50;2329.60;;;;;;4960541;28;20050;-83
2021/06/01 20:00:55;;;;;;;11.73;7.43;;;358.50;2329.60;;;;;;4960830;28;20463;-82
2021/06/01 20:03:22;;;;;;;18.13;11.60;;;358.50;2329.60;;;;;;4960649;28;20070;-82
2021/06/01 20:05:55;;;;;;;19.23;12.77;;;358.50;2329.60;;;;;;4977843;28;20033;-83